sensor_id;sensor_type;location;lat;lon;timestamp;pressure;altitude;pressure_sealevel;temperature;humidity
52949;BME280;38812;50.942;3.644;2023-05-25T00:02:15;102510.75;;;10.05;100.00
52949;BME280;38812;50.942;3.644;2023-05-25T00:04:40;102518.59;;;10.00;100.00
52949;BME280;38812;50.942;3.644;2023-05-25T00:07:06;102523.03;;;10.06;100.00
52949;BME280;38812;50.942;3.644;2023-05-25T00:09:31;102513.44;;;10.12;100.00
52949;BME280;38812;50.942;3.644;2023-05-25T00:11:57;102503.03;;;10.21;100.00
52949;BME280;38812;50.942;3.644;2023-05-25T00:14:24;102512.72;;;10.27;100.00
52949;BME280;38812;50.942;3.644;2023-05-25T00:16:50;102516.22;;;10.29;100.00
52949;BME280;38812;50.942;3.644;2023-05-25T00:19:15;102517.03;;;10.22;100.00
52949;BME280;38812;50.942;3.644;2023-05-25T00:21:43;102512.59;;;10.13;100.00
52949;BME280;38812;50.942;3.644;2023-05-25T00:24:10;102516.19;;;10.26;100.00
52949;BME280;38812;50.942;3.644;2023-05-25T00:26:35;102514.31;;;10.10;100.00
52949;BME280;38812;50.942;3.644;2023-05-25T00:29:02;102514.41;;;10.22;100.00
52949;BME280;38812;50.942;3.644;2023-05-25T00:31:28;102512.72;;;10.27;100.00
52949;BME280;38812;50.942;3.644;2023-05-25T00:33:56;102511.81;;;10.23;100.00
52949;BME280;38812;50.942;3.644;2023-05-25T00:36:23;102510.91;;;10.21;100.00
52949;BME280;38812;50.942;3.644;2023-05-25T00:38:48;102506.50;;;10.17;100.00
52949;BME280;38812;50.942;3.644;2023-05-25T00:41:16;102515.19;;;10.09;100.00
52949;BME280;38812;50.942;3.644;2023-05-25T00:43:41;102526.72;;;10.26;100.00
52949;BME280;38812;50.942;3.644;2023-05-25T00:46:08;102519.66;;;10.22;100.00
52949;BME280;38812;50.942;3.644;2023-05-25T00:48:35;102514.50;;;10.33;100.00
52949;BME280;38812;50.942;3.644;2023-05-25T00:51:00;102531.09;;;10.27;100.00
52949;BME280;38812;50.942;3.644;2023-05-25T00:53:26;102529.34;;;10.26;100.00
52949;BME280;38812;50.942;3.644;2023-05-25T00:56:01;102523.16;;;10.21;100.00
52949;BME280;38812;50.942;3.644;2023-05-25T00:58:30;102528.47;;;10.27;100.00
52949;BME280;38812;50.942;3.644;2023-05-25T01:00:57;102524.91;;;10.22;100.00
52949;BME280;38812;50.942;3.644;2023-05-25T01:03:25;102531.91;;;10.20;100.00
52949;BME280;38812;50.942;3.644;2023-05-25T01:05:54;102525.72;;;10.18;100.00
52949;BME280;38812;50.942;3.644;2023-05-25T01:08:22;102524.91;;;10.22;100.00
52949;BME280;38812;50.942;3.644;2023-05-25T01:10:48;102524.91;;;10.22;100.00
52949;BME280;38812;50.942;3.644;2023-05-25T01:13:17;102533.63;;;10.15;100.00
52949;BME280;38812;50.942;3.644;2023-05-25T01:15:44;102526.63;;;10.17;100.00
52949;BME280;38812;50.942;3.644;2023-05-25T01:18:13;102518.69;;;10.11;100.00
52949;BME280;38812;50.942;3.644;2023-05-25T01:23:41;102524.91;;;10.22;100.00
52949;BME280;38812;50.942;3.644;2023-05-25T01:26:14;102525.91;;;10.35;100.00
52949;BME280;38812;50.942;3.644;2023-05-25T01:28:45;102530.19;;;10.25;100.00
52949;BME280;38812;50.942;3.644;2023-05-25T01:31:12;102531.03;;;10.19;100.00
52949;BME280;38812;50.942;3.644;2023-05-25T01:33:40;102534.50;;;10.17;100.00
52949;BME280;38812;50.942;3.644;2023-05-25T01:36:06;102536.16;;;10.07;100.00
52949;BME280;38812;50.942;3.644;2023-05-25T01:38:32;102534.44;;;10.09;100.00
52949;BME280;38812;50.942;3.644;2023-05-25T01:40:58;102535.16;;;9.91;100.00
52949;BME280;38812;50.942;3.644;2023-05-25T01:43:23;102535.06;;;9.82;100.00
52949;BME280;38812;50.942;3.644;2023-05-25T01:45:49;102538.56;;;9.81;100.00
52949;BME280;38812;50.942;3.644;2023-05-25T01:48:35;102546.44;;;9.80;100.00
52949;BME280;38812;50.942;3.644;2023-05-25T01:51:13;102541.16;;;9.78;100.00
52949;BME280;38812;50.942;3.644;2023-05-25T01:54:06;102539.47;;;9.83;100.00
52949;BME280;38812;50.942;3.644;2023-05-25T01:56:34;102542.03;;;9.74;100.00
52949;BME280;38812;50.942;3.644;2023-05-25T01:59:01;102536.78;;;9.74;100.00
52949;BME280;38812;50.942;3.644;2023-05-25T02:01:28;102547.25;;;9.71;100.00
52949;BME280;38812;50.942;3.644;2023-05-25T02:03:55;102539.25;;;9.60;100.00
52949;BME280;38812;50.942;3.644;2023-05-25T02:06:21;102534.81;;;9.52;100.00
52949;BME280;38812;50.942;3.644;2023-05-25T02:08:46;102541.72;;;9.44;100.00
52949;BME280;38812;50.942;3.644;2023-05-25T02:11:12;102535.56;;;9.43;100.00
52949;BME280;38812;50.942;3.644;2023-05-25T02:13:39;102546.06;;;9.42;100.00
52949;BME280;38812;50.942;3.644;2023-05-25T02:16:05;102541.56;;;9.32;100.00
52949;BME280;38812;50.942;3.644;2023-05-25T02:18:30;102551.13;;;9.26;100.00
52949;BME280;38812;50.942;3.644;2023-05-25T02:20:56;102550.16;;;9.18;100.00
52949;BME280;38812;50.942;3.644;2023-05-25T02:23:21;102540.41;;;9.05;100.00
52949;BME280;38812;50.942;3.644;2023-05-25T02:25:47;102551.56;;;8.92;100.00
52949;BME280;38812;50.942;3.644;2023-05-25T02:28:13;102546.25;;;8.84;100.00
52949;BME280;38812;50.942;3.644;2023-05-25T02:30:39;102551.66;;;8.98;100.00
52949;BME280;38812;50.942;3.644;2023-05-25T02:33:04;102550.75;;;8.96;100.00
52949;BME280;38812;50.942;3.644;2023-05-25T02:35:29;102554.31;;;9.01;100.00
52949;BME280;38812;50.942;3.644;2023-05-25T02:37:55;102559.56;;;9.01;100.00
52949;BME280;38812;50.942;3.644;2023-05-25T02:40:20;102554.31;;;9.00;100.00
52949;BME280;38812;50.942;3.644;2023-05-25T02:42:46;102556.00;;;8.96;100.00
52949;BME280;38812;50.942;3.644;2023-05-25T02:45:11;102551.56;;;8.90;100.00
52949;BME280;38812;50.942;3.644;2023-05-25T02:47:37;102554.94;;;8.82;100.00
52949;BME280;38812;50.942;3.644;2023-05-25T02:50:03;102556.63;;;8.77;100.00
52949;BME280;38812;50.942;3.644;2023-05-25T02:52:28;102554.03;;;8.78;100.00
52949;BME280;38812;50.942;3.644;2023-05-25T02:54:56;102562.75;;;8.77;100.00
52949;BME280;38812;50.942;3.644;2023-05-25T02:57:21;102553.84;;;8.66;100.00
52949;BME280;38812;50.942;3.644;2023-05-25T02:59:48;102557.56;;;8.80;100.00
52949;BME280;38812;50.942;3.644;2023-05-25T03:02:13;102554.78;;;8.70;100.00
52949;BME280;38812;50.942;3.644;2023-05-25T03:04:38;102550.03;;;8.43;100.00
52949;BME280;38812;50.942;3.644;2023-05-25T03:07:05;102550.91;;;8.43;100.00
52949;BME280;38812;50.942;3.644;2023-05-25T03:09:31;102547.56;;;8.53;100.00
52949;BME280;38812;50.942;3.644;2023-05-25T03:11:56;102559.81;;;8.54;100.00
52949;BME280;38812;50.942;3.644;2023-05-25T03:14:22;102558.09;;;8.56;100.00
52949;BME280;38812;50.942;3.644;2023-05-25T03:16:47;102557.03;;;8.45;100.00
52949;BME280;38812;50.942;3.644;2023-05-25T03:19:12;102565.69;;;8.40;100.00
52949;BME280;38812;50.942;3.644;2023-05-25T03:21:38;102569.97;;;8.33;100.00
52949;BME280;38812;50.942;3.644;2023-05-25T03:24:03;102568.03;;;8.24;100.00
52949;BME280;38812;50.942;3.644;2023-05-25T03:26:29;102573.22;;;8.23;100.00
52949;BME280;38812;50.942;3.644;2023-05-25T03:28:56;102576.69;;;8.19;100.00
52949;BME280;38812;50.942;3.644;2023-05-25T03:31:22;102579.94;;;8.06;100.00
52949;BME280;38812;50.942;3.644;2023-05-25T03:33:47;102577.47;;;8.13;100.00
52949;BME280;38812;50.942;3.644;2023-05-25T03:36:12;102574.75;;;8.09;100.00
52949;BME280;38812;50.942;3.644;2023-05-25T03:38:42;102573.06;;;8.12;100.00
52949;BME280;38812;50.942;3.644;2023-05-25T03:41:07;102583.47;;;8.08;100.00
52949;BME280;38812;50.942;3.644;2023-05-25T03:43:33;102579.13;;;8.10;100.00
52949;BME280;38812;50.942;3.644;2023-05-25T03:45:58;102583.69;;;8.20;100.00
52949;BME280;38812;50.942;3.644;2023-05-25T03:48:23;102584.50;;;8.16;100.00
52949;BME280;38812;50.942;3.644;2023-05-25T03:50:49;102581.88;;;8.16;100.00
52949;BME280;38812;50.942;3.644;2023-05-25T03:53:14;102580.19;;;8.19;100.00
52949;BME280;38812;50.942;3.644;2023-05-25T03:55:41;102592.56;;;8.31;100.00
52949;BME280;38812;50.942;3.644;2023-05-25T03:58:06;102587.06;;;8.14;100.00
52949;BME280;38812;50.942;3.644;2023-05-25T04:00:34;102602.81;;;8.16;100.00
52949;BME280;38812;50.942;3.644;2023-05-25T04:03:00;102606.44;;;8.22;100.00
52949;BME280;38812;50.942;3.644;2023-05-25T04:05:26;102602.69;;;8.10;100.00
52949;BME280;38812;50.942;3.644;2023-05-25T04:07:51;102610.88;;;8.30;100.00
52949;BME280;38812;50.942;3.644;2023-05-25T04:10:16;102611.84;;;8.33;100.00
52949;BME280;38812;50.942;3.644;2023-05-25T04:12:42;102609.28;;;8.36;100.00
52949;BME280;38812;50.942;3.644;2023-05-25T04:15:07;102610.00;;;8.29;100.00
52949;BME280;38812;50.942;3.644;2023-05-25T04:17:34;102602.22;;;8.32;100.00
52949;BME280;38812;50.942;3.644;2023-05-25T04:20:00;102604.75;;;8.29;100.00
52949;BME280;38812;50.942;3.644;2023-05-25T04:22:26;102606.34;;;8.18;100.00
52949;BME280;38812;50.942;3.644;2023-05-25T04:24:51;102614.97;;;8.12;100.00
52949;BME280;38812;50.942;3.644;2023-05-25T04:27:16;102616.88;;;8.24;100.00
52949;BME280;38812;50.942;3.644;2023-05-25T04:29:44;102616.00;;;8.20;100.00
52949;BME280;38812;50.942;3.644;2023-05-25T04:32:09;102605.59;;;8.26;100.00
52949;BME280;38812;50.942;3.644;2023-05-25T04:34:35;102630.28;;;8.39;100.00
52949;BME280;38812;50.942;3.644;2023-05-25T04:37:00;102614.63;;;8.42;100.00
52949;BME280;38812;50.942;3.644;2023-05-25T04:39:30;102627.06;;;8.55;100.00
52949;BME280;38812;50.942;3.644;2023-05-25T04:41:56;102628.94;;;8.64;100.00
52949;BME280;38812;50.942;3.644;2023-05-25T04:44:22;102619.47;;;8.74;100.00
52949;BME280;38812;50.942;3.644;2023-05-25T04:46:48;102630.09;;;8.83;100.00
52949;BME280;38812;50.942;3.644;2023-05-25T04:49:14;102622.31;;;8.90;100.00
52949;BME280;38812;50.942;3.644;2023-05-25T04:51:40;102627.94;;;9.18;100.00
52949;BME280;38812;50.942;3.644;2023-05-25T04:54:06;102626.34;;;9.29;100.00
52949;BME280;38812;50.942;3.644;2023-05-25T04:56:31;102627.34;;;9.39;100.00
52949;BME280;38812;50.942;3.644;2023-05-25T04:58:57;102632.84;;;9.61;100.00
52949;BME280;38812;50.942;3.644;2023-05-25T05:01:22;102625.19;;;9.81;100.00
52949;BME280;38812;50.942;3.644;2023-05-25T05:03:48;102628.16;;;10.15;100.00
52949;BME280;38812;50.942;3.644;2023-05-25T05:06:13;102631.03;;;10.39;100.00
52949;BME280;38812;50.942;3.644;2023-05-25T05:08:39;102632.28;;;10.96;100.00
52949;BME280;38812;50.942;3.644;2023-05-25T05:11:05;102618.56;;;11.67;100.00
52949;BME280;38812;50.942;3.644;2023-05-25T05:13:31;102621.31;;;12.52;100.00
52949;BME280;38812;50.942;3.644;2023-05-25T05:15:56;102623.63;;;13.62;100.00
52949;BME280;38812;50.942;3.644;2023-05-25T05:18:22;102617.44;;;14.78;100.00
52949;BME280;38812;50.942;3.644;2023-05-25T05:20:47;102618.28;;;15.55;100.00
52949;BME280;38812;50.942;3.644;2023-05-25T05:23:12;102620.84;;;16.21;100.00
52949;BME280;38812;50.942;3.644;2023-05-25T05:25:38;102627.44;;;16.49;100.00
52949;BME280;38812;50.942;3.644;2023-05-25T05:28:03;102627.34;;;17.03;100.00
52949;BME280;38812;50.942;3.644;2023-05-25T05:30:29;102636.66;;;17.25;100.00
52949;BME280;38812;50.942;3.644;2023-05-25T05:32:54;102642.28;;;17.52;100.00
52949;BME280;38812;50.942;3.644;2023-05-25T05:35:20;102635.69;;;17.71;100.00
52949;BME280;38812;50.942;3.644;2023-05-25T05:37:46;102637.16;;;17.84;100.00
52949;BME280;38812;50.942;3.644;2023-05-25T05:40:12;102645.41;;;18.46;100.00
52949;BME280;38812;50.942;3.644;2023-05-25T05:42:38;102641.81;;;18.47;100.00
52949;BME280;38812;50.942;3.644;2023-05-25T05:45:03;102646.72;;;18.98;100.00
52949;BME280;38812;50.942;3.644;2023-05-25T05:47:29;102655.47;;;19.03;100.00
52949;BME280;38812;50.942;3.644;2023-05-25T05:49:54;102646.84;;;19.26;100.00
52949;BME280;38812;50.942;3.644;2023-05-25T05:52:20;102650.97;;;19.05;100.00
52949;BME280;38812;50.942;3.644;2023-05-25T05:54:45;102657.41;;;19.27;100.00
52949;BME280;38812;50.942;3.644;2023-05-25T05:57:11;102660.88;;;18.66;100.00
52949;BME280;38812;50.942;3.644;2023-05-25T05:59:36;102665.03;;;18.05;100.00
52949;BME280;38812;50.942;3.644;2023-05-25T06:02:01;102669.72;;;17.54;100.00
52949;BME280;38812;50.942;3.644;2023-05-25T06:04:27;102674.00;;;17.16;100.00
52949;BME280;38812;50.942;3.644;2023-05-25T06:06:53;102664.13;;;16.76;100.00
52949;BME280;38812;50.942;3.644;2023-05-25T06:09:19;102667.59;;;16.82;100.00
52949;BME280;38812;50.942;3.644;2023-05-25T06:11:46;102671.38;;;17.14;100.00
52949;BME280;38812;50.942;3.644;2023-05-25T06:14:11;102667.88;;;17.56;100.00
52949;BME280;38812;50.942;3.644;2023-05-25T06:16:37;102682.16;;;17.07;100.00
52949;BME280;38812;50.942;3.644;2023-05-25T06:19:02;102677.44;;;17.21;100.00
52949;BME280;38812;50.942;3.644;2023-05-25T06:21:28;102679.66;;;16.98;100.00
52949;BME280;38812;50.942;3.644;2023-05-25T06:23:53;102664.38;;;16.61;100.00
52949;BME280;38812;50.942;3.644;2023-05-25T06:26:19;102669.34;;;16.27;100.00
52949;BME280;38812;50.942;3.644;2023-05-25T06:28:44;102686.97;;;15.71;100.00
52949;BME280;38812;50.942;3.644;2023-05-25T06:31:11;102675.16;;;15.23;100.00
52949;BME280;38812;50.942;3.644;2023-05-25T06:33:37;102683.25;;;15.11;100.00
52949;BME280;38812;50.942;3.644;2023-05-25T06:36:02;102686.13;;;14.90;100.00
52949;BME280;38812;50.942;3.644;2023-05-25T06:38:28;102705.53;;;14.89;100.00
52949;BME280;38812;50.942;3.644;2023-05-25T06:40:53;102683.53;;;14.84;100.00
52949;BME280;38812;50.942;3.644;2023-05-25T06:43:19;102680.75;;;14.96;100.00
52949;BME280;38812;50.942;3.644;2023-05-25T06:45:44;102687.94;;;14.85;100.00
52949;BME280;38812;50.942;3.644;2023-05-25T06:48:10;102691.41;;;14.90;100.00
52949;BME280;38812;50.942;3.644;2023-05-25T06:50:35;102690.38;;;15.03;100.00
52949;BME280;38812;50.942;3.644;2023-05-25T06:53:01;102697.44;;;15.04;100.00
52949;BME280;38812;50.942;3.644;2023-05-25T06:55:26;102695.63;;;15.09;100.00
52949;BME280;38812;50.942;3.644;2023-05-25T06:57:51;102705.28;;;15.13;100.00
52949;BME280;38812;50.942;3.644;2023-05-25T07:00:17;102707.06;;;15.14;100.00
52949;BME280;38812;50.942;3.644;2023-05-25T07:02:43;102691.00;;;15.26;100.00
52949;BME280;38812;50.942;3.644;2023-05-25T07:05:08;102693.66;;;15.28;100.00
52949;BME280;38812;50.942;3.644;2023-05-25T07:07:34;102700.66;;;15.33;100.00
52949;BME280;38812;50.942;3.644;2023-05-25T07:10:01;102706.63;;;15.51;100.00
52949;BME280;38812;50.942;3.644;2023-05-25T07:12:27;102701.31;;;15.51;100.00
52949;BME280;38812;50.942;3.644;2023-05-25T07:14:52;102699.59;;;15.47;100.00
52949;BME280;38812;50.942;3.644;2023-05-25T07:17:17;102696.03;;;15.51;100.00
52949;BME280;38812;50.942;3.644;2023-05-25T07:19:43;102703.22;;;15.39;100.00
52949;BME280;38812;50.942;3.644;2023-05-25T07:22:09;102705.78;;;15.47;100.00
52949;BME280;38812;50.942;3.644;2023-05-25T07:24:35;102717.34;;;15.38;100.00
52949;BME280;38812;50.942;3.644;2023-05-25T07:27:01;102728.69;;;15.53;100.00
52949;BME280;38812;50.942;3.644;2023-05-25T07:29:26;102714.44;;;15.64;100.00
52949;BME280;38812;50.942;3.644;2023-05-25T07:31:52;102720.63;;;15.62;100.00
52949;BME280;38812;50.942;3.644;2023-05-25T07:34:17;102719.63;;;15.73;100.00
52949;BME280;38812;50.942;3.644;2023-05-25T07:36:43;102704.28;;;15.98;100.00
52949;BME280;38812;50.942;3.644;2023-05-25T07:39:08;102715.25;;;15.71;100.00
52949;BME280;38812;50.942;3.644;2023-05-25T07:41:35;102716.56;;;16.02;100.00
52949;BME280;38812;50.942;3.644;2023-05-25T07:44:00;102727.81;;;16.20;100.00
52949;BME280;38812;50.942;3.644;2023-05-25T07:46:26;102724.34;;;16.15;100.00
52949;BME280;38812;50.942;3.644;2023-05-25T07:48:51;102726.56;;;15.81;100.00
52949;BME280;38812;50.942;3.644;2023-05-25T07:51:18;102744.75;;;16.09;100.00
52949;BME280;38812;50.942;3.644;2023-05-25T07:53:44;102726.22;;;16.08;100.00
52949;BME280;38812;50.942;3.644;2023-05-25T07:56:09;102732.44;;;16.05;100.00
52949;BME280;38812;50.942;3.644;2023-05-25T07:58:35;102740.66;;;15.84;100.00
52949;BME280;38812;50.942;3.644;2023-05-25T08:01:00;102728.50;;;15.69;100.00
52949;BME280;38812;50.942;3.644;2023-05-25T08:03:25;102731.88;;;15.81;100.00
52949;BME280;38812;50.942;3.644;2023-05-25T08:05:51;102727.09;;;16.08;100.00
52949;BME280;38812;50.942;3.644;2023-05-25T08:08:17;102738.13;;;16.39;100.00
52949;BME280;38812;50.942;3.644;2023-05-25T08:10:43;102740.44;;;16.62;100.00
52949;BME280;38812;50.942;3.644;2023-05-25T08:13:08;102731.84;;;17.00;100.00
52949;BME280;38812;50.942;3.644;2023-05-25T08:15:34;102738.41;;;16.79;100.00
52949;BME280;38812;50.942;3.644;2023-05-25T08:17:59;102730.28;;;17.35;100.00
52949;BME280;38812;50.942;3.644;2023-05-25T08:20:25;102735.03;;;17.64;100.00
52949;BME280;38812;50.942;3.644;2023-05-25T08:22:50;102724.31;;;18.47;100.00
52949;BME280;38812;50.942;3.644;2023-05-25T08:25:17;102731.16;;;18.94;100.00
52949;BME280;38812;50.942;3.644;2023-05-25T08:27:43;102732.84;;;19.63;95.63
52949;BME280;38812;50.942;3.644;2023-05-25T08:30:09;102732.72;;;20.25;87.82
52949;BME280;38812;50.942;3.644;2023-05-25T08:32:34;102736.91;;;20.62;89.49
52949;BME280;38812;50.942;3.644;2023-05-25T08:35:00;102731.44;;;21.42;84.15
52949;BME280;38812;50.942;3.644;2023-05-25T08:37:30;102728.09;;;20.84;79.86
52949;BME280;38812;50.942;3.644;2023-05-25T08:39:55;102732.50;;;21.62;79.96
52949;BME280;38812;50.942;3.644;2023-05-25T08:42:20;102724.00;;;21.97;75.19
52949;BME280;38812;50.942;3.644;2023-05-25T08:44:47;102731.75;;;20.82;74.80
52949;BME280;38812;50.942;3.644;2023-05-25T08:47:13;102727.25;;;21.09;78.54
52949;BME280;38812;50.942;3.644;2023-05-25T08:49:43;102735.03;;;21.41;78.43
52949;BME280;38812;50.942;3.644;2023-05-25T08:52:21;102731.88;;;22.02;72.18
52949;BME280;38812;50.942;3.644;2023-05-25T08:54:49;102721.03;;;21.81;74.61
52949;BME280;38812;50.942;3.644;2023-05-25T08:57:23;102720.44;;;21.73;72.37
52949;BME280;38812;50.942;3.644;2023-05-25T08:59:53;102724.91;;;21.96;70.32
52949;BME280;38812;50.942;3.644;2023-05-25T09:02:53;102735.25;;;21.83;68.42
52949;BME280;38812;50.942;3.644;2023-05-25T09:05:18;102723.91;;;20.51;73.76
52949;BME280;38812;50.942;3.644;2023-05-25T09:07:43;102731.44;;;21.66;74.06
52949;BME280;38812;50.942;3.644;2023-05-25T09:10:13;102739.56;;;21.39;69.45
52949;BME280;38812;50.942;3.644;2023-05-25T09:12:39;102736.53;;;20.99;69.30
52949;BME280;38812;50.942;3.644;2023-05-25T09:15:06;102735.16;;;21.38;69.18
52949;BME280;38812;50.942;3.644;2023-05-25T09:17:31;102733.00;;;21.71;68.53
52949;BME280;38812;50.942;3.644;2023-05-25T09:19:58;102734.03;;;21.19;67.66
52949;BME280;38812;50.942;3.644;2023-05-25T09:22:23;102732.25;;;21.68;69.81
52949;BME280;38812;50.942;3.644;2023-05-25T09:24:48;102739.38;;;19.82;70.54
52949;BME280;38812;50.942;3.644;2023-05-25T09:27:18;102731.47;;;19.16;73.62
52949;BME280;38812;50.942;3.644;2023-05-25T09:29:49;102731.50;;;20.90;73.03
52949;BME280;38812;50.942;3.644;2023-05-25T09:32:16;102745.28;;;21.29;67.67
52949;BME280;38812;50.942;3.644;2023-05-25T09:34:42;102732.22;;;21.21;67.03
52949;BME280;38812;50.942;3.644;2023-05-25T09:37:12;102736.25;;;22.04;66.69
52949;BME280;38812;50.942;3.644;2023-05-25T09:39:40;102734.44;;;22.05;62.15
52949;BME280;38812;50.942;3.644;2023-05-25T09:42:05;102742.34;;;22.73;59.79
52949;BME280;38812;50.942;3.644;2023-05-25T09:44:31;102733.28;;;23.18;59.12
52949;BME280;38812;50.942;3.644;2023-05-25T09:46:56;102718.81;;;22.38;58.73
52949;BME280;38812;50.942;3.644;2023-05-25T09:49:22;102730.16;;;22.22;60.56
52949;BME280;38812;50.942;3.644;2023-05-25T09:51:48;102723.00;;;22.45;60.90
52949;BME280;38812;50.942;3.644;2023-05-25T09:54:13;102722.47;;;22.57;60.75
52949;BME280;38812;50.942;3.644;2023-05-25T09:56:40;102719.31;;;23.50;62.01
52949;BME280;38812;50.942;3.644;2023-05-25T09:59:06;102721.44;;;23.42;60.76
52949;BME280;38812;50.942;3.644;2023-05-25T10:01:33;102715.31;;;23.98;60.39
52949;BME280;38812;50.942;3.644;2023-05-25T10:04:00;102720.38;;;23.46;57.18
52949;BME280;38812;50.942;3.644;2023-05-25T10:06:26;102730.88;;;23.52;60.03
52949;BME280;38812;50.942;3.644;2023-05-25T10:08:55;102730.94;;;22.68;59.44
52949;BME280;38812;50.942;3.644;2023-05-25T10:11:23;102737.47;;;20.98;62.97
52949;BME280;38812;50.942;3.644;2023-05-25T10:13:49;102737.84;;;21.85;63.22
52949;BME280;38812;50.942;3.644;2023-05-25T10:16:16;102730.56;;;22.34;63.81
52949;BME280;38812;50.942;3.644;2023-05-25T10:18:46;102726.50;;;22.89;60.24
52949;BME280;38812;50.942;3.644;2023-05-25T10:21:15;102737.66;;;21.43;63.63
52949;BME280;38812;50.942;3.644;2023-05-25T10:23:44;102730.28;;;21.00;64.58
52949;BME280;38812;50.942;3.644;2023-05-25T10:26:15;102736.66;;;21.45;66.04
52949;BME280;38812;50.942;3.644;2023-05-25T10:28:43;102745.31;;;22.00;62.86
52949;BME280;38812;50.942;3.644;2023-05-25T10:31:11;102741.28;;;22.12;61.99
52949;BME280;38812;50.942;3.644;2023-05-25T10:33:38;102731.03;;;21.76;60.82
52949;BME280;38812;50.942;3.644;2023-05-25T10:36:05;102726.22;;;21.86;61.20
52949;BME280;38812;50.942;3.644;2023-05-25T10:38:31;102725.16;;;22.57;63.48
52949;BME280;38812;50.942;3.644;2023-05-25T10:40:58;102731.84;;;22.47;62.38
52949;BME280;38812;50.942;3.644;2023-05-25T10:43:25;102722.91;;;22.68;60.84
52949;BME280;38812;50.942;3.644;2023-05-25T10:45:51;102729.66;;;22.35;62.51
52949;BME280;38812;50.942;3.644;2023-05-25T10:48:17;102726.66;;;22.86;61.75
52949;BME280;38812;50.942;3.644;2023-05-25T10:50:48;102722.41;;;22.80;60.30
52949;BME280;38812;50.942;3.644;2023-05-25T10:53:14;102730.91;;;22.48;59.61
52949;BME280;38812;50.942;3.644;2023-05-25T10:55:48;102736.31;;;21.05;64.07
52949;BME280;38812;50.942;3.644;2023-05-25T10:58:26;102732.69;;;19.97;68.53
52949;BME280;38812;50.942;3.644;2023-05-25T11:06:08;102711.72;;;22.37;62.65
52949;BME280;38812;50.942;3.644;2023-05-25T11:08:54;102721.78;;;22.52;63.72
52949;BME280;38812;50.942;3.644;2023-05-25T11:11:20;102715.38;;;22.12;63.21
52949;BME280;38812;50.942;3.644;2023-05-25T11:13:47;102732.25;;;21.68;62.89
52949;BME280;38812;50.942;3.644;2023-05-25T11:18:56;102723.81;;;21.32;63.01
52949;BME280;38812;50.942;3.644;2023-05-25T11:23:55;102717.13;;;21.18;66.40
52949;BME280;38812;50.942;3.644;2023-05-25T11:26:25;102717.00;;;20.97;65.75
52949;BME280;38812;50.942;3.644;2023-05-25T11:28:52;102717.84;;;20.72;68.87
52949;BME280;38812;50.942;3.644;2023-05-25T11:31:19;102710.09;;;21.16;66.01
52949;BME280;38812;50.942;3.644;2023-05-25T11:33:45;102709.59;;;21.05;67.86
52949;BME280;38812;50.942;3.644;2023-05-25T11:36:12;102709.53;;;21.56;66.81
52949;BME280;38812;50.942;3.644;2023-05-25T11:38:42;102697.38;;;21.71;65.56
52949;BME280;38812;50.942;3.644;2023-05-25T11:41:16;102699.69;;;21.33;65.78
52949;BME280;38812;50.942;3.644;2023-05-25T11:43:44;102695.03;;;21.13;64.85
52949;BME280;38812;50.942;3.644;2023-05-25T11:46:09;102695.63;;;21.46;64.65
52949;BME280;38812;50.942;3.644;2023-05-25T11:48:35;102703.31;;;21.79;67.75
52949;BME280;38812;50.942;3.644;2023-05-25T11:51:04;102691.56;;;22.70;63.89
52949;BME280;38812;50.942;3.644;2023-05-25T11:53:30;102693.59;;;22.21;64.06
52949;BME280;38812;50.942;3.644;2023-05-25T11:55:55;102685.66;;;21.97;65.37
52949;BME280;38812;50.942;3.644;2023-05-25T11:58:21;102694.09;;;22.09;64.13
52949;BME280;38812;50.942;3.644;2023-05-25T12:00:46;102688.53;;;22.36;64.10
52949;BME280;38812;50.942;3.644;2023-05-25T12:03:28;102695.28;;;22.02;60.13
52949;BME280;38812;50.942;3.644;2023-05-25T12:05:55;102700.59;;;22.26;59.96
52949;BME280;38812;50.942;3.644;2023-05-25T12:08:41;102687.56;;;21.93;63.33
52949;BME280;38812;50.942;3.644;2023-05-25T12:11:06;102693.75;;;21.95;60.37
52949;BME280;38812;50.942;3.644;2023-05-25T12:13:32;102687.25;;;21.79;61.57
52949;BME280;38812;50.942;3.644;2023-05-25T12:15:57;102693.16;;;22.10;63.75
52949;BME280;38812;50.942;3.644;2023-05-25T12:18:26;102684.03;;;22.58;61.35
52949;BME280;38812;50.942;3.644;2023-05-25T12:20:51;102685.25;;;22.93;62.18
52949;BME280;38812;50.942;3.644;2023-05-25T12:23:17;102682.97;;;22.84;60.50
52949;BME280;38812;50.942;3.644;2023-05-25T12:25:42;102680.53;;;22.78;59.37
52949;BME280;38812;50.942;3.644;2023-05-25T12:28:09;102679.66;;;23.18;62.15
52949;BME280;38812;50.942;3.644;2023-05-25T12:30:35;102670.47;;;23.23;60.90
52949;BME280;38812;50.942;3.644;2023-05-25T12:33:00;102681.22;;;22.61;58.82
52949;BME280;38812;50.942;3.644;2023-05-25T12:35:27;102674.00;;;22.63;59.34
52949;BME280;38812;50.942;3.644;2023-05-25T12:38:26;102683.78;;;22.22;60.87
52949;BME280;38812;50.942;3.644;2023-05-25T12:41:05;102679.00;;;22.08;60.13
52949;BME280;38812;50.942;3.644;2023-05-25T12:43:40;102678.03;;;22.31;63.04
52949;BME280;38812;50.942;3.644;2023-05-25T12:46:07;102670.47;;;22.63;63.01
52949;BME280;38812;50.942;3.644;2023-05-25T12:48:33;102673.31;;;22.58;59.46
52949;BME280;38812;50.942;3.644;2023-05-25T12:50:58;102674.25;;;21.92;64.36
52949;BME280;38812;50.942;3.644;2023-05-25T12:53:24;102682.13;;;21.26;65.40
52949;BME280;38812;50.942;3.644;2023-05-25T12:56:00;102676.91;;;21.46;63.61
52949;BME280;38812;50.942;3.644;2023-05-25T12:58:27;102675.63;;;22.03;64.78